sensor_id;sensor_type;location;lat;lon;timestamp;P1;durP1;ratioP1;P2;durP2;ratioP2
23099;SDS011;53791;50.696;4.396;2022-09-17T00:01:17;71.05;;;65.17;;
23099;SDS011;53791;50.696;4.396;2022-09-17T00:03:49;119.72;;;67.67;;
23099;SDS011;53791;50.696;4.396;2022-09-17T00:06:18;1999.90;;;999.90;;
23099;SDS011;53791;50.696;4.396;2022-09-17T00:08:46;5.67;;;5.28;;
23099;SDS011;53791;50.696;4.396;2022-09-17T00:11:15;22.55;;;20.60;;
23099;SDS011;53791;50.696;4.396;2022-09-17T00:13:46;6.53;;;5.33;;
23099;SDS011;53791;50.696;4.396;2022-09-17T00:16:26;365.07;;;240.43;;
23099;SDS011;53791;50.696;4.396;2022-09-17T00:18:55;142.65;;;129.95;;
23099;SDS011;53791;50.696;4.396;2022-09-17T00:21:23;44.80;;;42.10;;
23099;SDS011;53791;50.696;4.396;2022-09-17T00:23:58;48.92;;;45.85;;
23099;SDS011;53791;50.696;4.396;2022-09-17T00:26:24;103.70;;;20.17;;
23099;SDS011;53791;50.696;4.396;2022-09-17T00:28:54;1511.60;;;760.65;;
23099;SDS011;53791;50.696;4.396;2022-09-17T00:31:22;1999.90;;;999.90;;
23099;SDS011;53791;50.696;4.396;2022-09-17T00:33:50;68.95;;;63.70;;
23099;SDS011;53791;50.696;4.396;2022-09-17T00:36:18;2.70;;;2.50;;
23099;SDS011;53791;50.696;4.396;2022-09-17T00:38:50;1999.90;;;999.90;;
23099;SDS011;53791;50.696;4.396;2022-09-17T00:41:19;1999.90;;;999.90;;
23099;SDS011;53791;50.696;4.396;2022-09-17T00:43:49;1999.90;;;999.90;;
23099;SDS011;53791;50.696;4.396;2022-09-17T00:49:10;1999.90;;;999.90;;
23099;SDS011;53791;50.696;4.396;2022-09-17T00:51:40;1999.90;;;999.90;;
23099;SDS011;53791;50.696;4.396;2022-09-17T00:54:10;1999.90;;;999.90;;
23099;SDS011;53791;50.696;4.396;2022-09-17T00:56:39;1999.90;;;999.90;;
23099;SDS011;53791;50.696;4.396;2022-09-17T00:59:08;1999.90;;;999.90;;
23099;SDS011;53791;50.696;4.396;2022-09-17T01:01:36;1999.90;;;999.90;;
23099;SDS011;53791;50.696;4.396;2022-09-17T01:04:03;1999.90;;;999.90;;
23099;SDS011;53791;50.696;4.396;2022-09-17T01:06:32;3.95;;;3.65;;
23099;SDS011;53791;50.696;4.396;2022-09-17T01:14:49;1999.90;;;999.90;;
23099;SDS011;53791;50.696;4.396;2022-09-17T01:25:57;1999.90;;;999.90;;
23099;SDS011;53791;50.696;4.396;2022-09-17T01:30:53;1999.90;;;999.90;;
23099;SDS011;53791;50.696;4.396;2022-09-17T01:38:51;1999.90;;;999.90;;
23099;SDS011;53791;50.696;4.396;2022-09-17T01:41:24;1999.90;;;999.90;;
23099;SDS011;53791;50.696;4.396;2022-09-17T01:44:10;1999.90;;;999.90;;
23099;SDS011;53791;50.696;4.396;2022-09-17T01:47:11;1999.90;;;999.90;;
23099;SDS011;53791;50.696;4.396;2022-09-17T01:49:52;1999.90;;;999.90;;
23099;SDS011;53791;50.696;4.396;2022-09-17T01:52:21;1999.90;;;999.90;;
23099;SDS011;53791;50.696;4.396;2022-09-17T01:54:52;1999.90;;;999.90;;
23099;SDS011;53791;50.696;4.396;2022-09-17T01:57:28;1999.90;;;999.90;;
23099;SDS011;53791;50.696;4.396;2022-09-17T02:00:03;1999.90;;;999.90;;
23099;SDS011;53791;50.696;4.396;2022-09-17T02:02:38;1999.90;;;999.90;;
23099;SDS011;53791;50.696;4.396;2022-09-17T02:05:18;1999.90;;;999.90;;
23099;SDS011;53791;50.696;4.396;2022-09-17T02:07:49;1999.90;;;999.90;;
23099;SDS011;53791;50.696;4.396;2022-09-17T02:10:18;1999.90;;;999.90;;
23099;SDS011;53791;50.696;4.396;2022-09-17T02:12:55;1999.90;;;999.90;;
23099;SDS011;53791;50.696;4.396;2022-09-17T02:15:28;1999.90;;;999.90;;
23099;SDS011;53791;50.696;4.396;2022-09-17T02:18:08;1999.90;;;999.90;;
23099;SDS011;53791;50.696;4.396;2022-09-17T02:20:44;1999.90;;;999.90;;
23099;SDS011;53791;50.696;4.396;2022-09-17T02:23:15;1999.90;;;999.90;;
23099;SDS011;53791;50.696;4.396;2022-09-17T02:25:51;15.90;;;14.90;;
23099;SDS011;53791;50.696;4.396;2022-09-17T02:31:09;369.50;;;212.05;;
23099;SDS011;53791;50.696;4.396;2022-09-17T02:33:36;4.47;;;2.62;;
23099;SDS011;53791;50.696;4.396;2022-09-17T02:36:06;1999.90;;;999.90;;
23099;SDS011;53791;50.696;4.396;2022-09-17T02:38:34;49.30;;;25.00;;
23099;SDS011;53791;50.696;4.396;2022-09-17T02:41:05;7.25;;;6.75;;
23099;SDS011;53791;50.696;4.396;2022-09-17T02:43:50;2.62;;;2.37;;
23099;SDS011;53791;50.696;4.396;2022-09-17T02:46:45;2.47;;;2.27;;
23099;SDS011;53791;50.696;4.396;2022-09-17T02:49:38;5.72;;;2.95;;
23099;SDS011;53791;50.696;4.396;2022-09-17T02:55:17;6.25;;;5.60;;
23099;SDS011;53791;50.696;4.396;2022-09-17T03:00:44;6.25;;;5.80;;
23099;SDS011;53791;50.696;4.396;2022-09-17T03:03:19;10.32;;;3.58;;
23099;SDS011;53791;50.696;4.396;2022-09-17T03:05:44;3.08;;;2.87;;
23099;SDS011;53791;50.696;4.396;2022-09-17T03:08:12;6.20;;;2.80;;
23099;SDS011;53791;50.696;4.396;2022-09-17T03:10:40;3.17;;;2.62;;
23099;SDS011;53791;50.696;4.396;2022-09-17T03:13:08;3.10;;;2.85;;
23099;SDS011;53791;50.696;4.396;2022-09-17T03:15:35;4.05;;;3.25;;
23099;SDS011;53791;50.696;4.396;2022-09-17T03:18:03;3.85;;;3.50;;
23099;SDS011;53791;50.696;4.396;2022-09-17T03:20:31;3.10;;;2.80;;
23099;SDS011;53791;50.696;4.396;2022-09-17T03:22:59;3.42;;;3.12;;
23099;SDS011;53791;50.696;4.396;2022-09-17T03:25:26;3.40;;;3.10;;
23099;SDS011;53791;50.696;4.396;2022-09-17T03:27:54;12.75;;;5.97;;
23099;SDS011;53791;50.696;4.396;2022-09-17T03:30:21;15.55;;;3.52;;
23099;SDS011;53791;50.696;4.396;2022-09-17T03:32:49;2.70;;;2.50;;
23099;SDS011;53791;50.696;4.396;2022-09-17T03:35:16;3.05;;;2.75;;
23099;SDS011;53791;50.696;4.396;2022-09-17T03:37:44;3.10;;;2.75;;
23099;SDS011;53791;50.696;4.396;2022-09-17T03:40:12;4.67;;;3.15;;
23099;SDS011;53791;50.696;4.396;2022-09-17T03:42:39;3.72;;;3.42;;
23099;SDS011;53791;50.696;4.396;2022-09-17T03:45:07;6.60;;;6.10;;
23099;SDS011;53791;50.696;4.396;2022-09-17T03:47:35;5.20;;;4.75;;
23099;SDS011;53791;50.696;4.396;2022-09-17T03:50:04;4.45;;;3.42;;
23099;SDS011;53791;50.696;4.396;2022-09-17T03:52:32;5.80;;;3.30;;
23099;SDS011;53791;50.696;4.396;2022-09-17T03:55:00;29.15;;;26.00;;
23099;SDS011;53791;50.696;4.396;2022-09-17T03:57:28;3.15;;;2.95;;
23099;SDS011;53791;50.696;4.396;2022-09-17T03:59:55;32.70;;;15.65;;
23099;SDS011;53791;50.696;4.396;2022-09-17T04:02:23;24.65;;;13.55;;
23099;SDS011;53791;50.696;4.396;2022-09-17T04:04:50;7.72;;;7.03;;
23099;SDS011;53791;50.696;4.396;2022-09-17T04:07:18;6.05;;;5.65;;
23099;SDS011;53791;50.696;4.396;2022-09-17T04:09:46;6.65;;;6.03;;
23099;SDS011;53791;50.696;4.396;2022-09-17T04:12:13;5.42;;;5.03;;
23099;SDS011;53791;50.696;4.396;2022-09-17T04:14:41;97.10;;;62.38;;
23099;SDS011;53791;50.696;4.396;2022-09-17T04:17:08;1999.90;;;999.90;;
23099;SDS011;53791;50.696;4.396;2022-09-17T04:19:36;64.65;;;60.15;;
23099;SDS011;53791;50.696;4.396;2022-09-17T04:22:04;75.85;;;66.45;;
23099;SDS011;53791;50.696;4.396;2022-09-17T04:24:31;42.08;;;38.88;;
23099;SDS011;53791;50.696;4.396;2022-09-17T04:26:59;40.33;;;37.53;;
23099;SDS011;53791;50.696;4.396;2022-09-17T04:29:26;40.15;;;37.03;;
23099;SDS011;53791;50.696;4.396;2022-09-17T04:31:54;36.48;;;33.98;;
23099;SDS011;53791;50.696;4.396;2022-09-17T04:34:21;63.38;;;30.20;;
23099;SDS011;53791;50.696;4.396;2022-09-17T04:36:49;31.48;;;28.87;;
23099;SDS011;53791;50.696;4.396;2022-09-17T04:39:16;22.90;;;21.15;;
23099;SDS011;53791;50.696;4.396;2022-09-17T04:41:44;54.05;;;28.23;;
23099;SDS011;53791;50.696;4.396;2022-09-17T04:44:12;11.48;;;6.67;;
23099;SDS011;53791;50.696;4.396;2022-09-17T04:46:40;6.50;;;4.15;;
23099;SDS011;53791;50.696;4.396;2022-09-17T04:49:07;3.30;;;3.00;;
23099;SDS011;53791;50.696;4.396;2022-09-17T04:51:36;3.00;;;2.80;;
23099;SDS011;53791;50.696;4.396;2022-09-17T04:54:03;31.25;;;16.32;;
23099;SDS011;53791;50.696;4.396;2022-09-17T04:56:31;4.15;;;3.75;;
23099;SDS011;53791;50.696;4.396;2022-09-17T04:58:59;3.60;;;3.30;;
23099;SDS011;53791;50.696;4.396;2022-09-17T05:01:26;6.28;;;5.75;;
23099;SDS011;53791;50.696;4.396;2022-09-17T05:03:54;5.47;;;4.10;;
23099;SDS011;53791;50.696;4.396;2022-09-17T05:06:21;3.72;;;3.37;;
23099;SDS011;53791;50.696;4.396;2022-09-17T05:08:49;2.98;;;2.77;;
23099;SDS011;53791;50.696;4.396;2022-09-17T05:11:16;8.40;;;3.87;;
23099;SDS011;53791;50.696;4.396;2022-09-17T05:13:44;3.45;;;3.15;;
23099;SDS011;53791;50.696;4.396;2022-09-17T05:16:11;3.98;;;3.60;;
23099;SDS011;53791;50.696;4.396;2022-09-17T05:18:39;3.77;;;3.40;;
23099;SDS011;53791;50.696;4.396;2022-09-17T05:21:06;10.03;;;3.62;;
23099;SDS011;53791;50.696;4.396;2022-09-17T05:23:34;4.97;;;3.75;;
23099;SDS011;53791;50.696;4.396;2022-09-17T05:26:01;3.47;;;3.17;;
23099;SDS011;53791;50.696;4.396;2022-09-17T05:28:29;4.95;;;3.72;;
23099;SDS011;53791;50.696;4.396;2022-09-17T05:30:59;14.45;;;10.82;;
23099;SDS011;53791;50.696;4.396;2022-09-17T05:33:27;3.40;;;3.10;;
23099;SDS011;53791;50.696;4.396;2022-09-17T05:35:55;15.23;;;3.45;;
23099;SDS011;53791;50.696;4.396;2022-09-17T05:38:22;5.90;;;5.20;;
23099;SDS011;53791;50.696;4.396;2022-09-17T05:40:50;3.83;;;3.52;;
23099;SDS011;53791;50.696;4.396;2022-09-17T05:43:18;3.15;;;2.85;;
23099;SDS011;53791;50.696;4.396;2022-09-17T05:45:45;215.90;;;84.37;;
23099;SDS011;53791;50.696;4.396;2022-09-17T05:48:13;2.75;;;2.55;;
23099;SDS011;53791;50.696;4.396;2022-09-17T05:50:41;4.37;;;3.22;;
23099;SDS011;53791;50.696;4.396;2022-09-17T05:53:12;3.00;;;2.80;;
23099;SDS011;53791;50.696;4.396;2022-09-17T05:55:40;11.12;;;3.15;;
23099;SDS011;53791;50.696;4.396;2022-09-17T05:58:12;4.60;;;3.25;;
23099;SDS011;53791;50.696;4.396;2022-09-17T06:00:37;4.42;;;3.08;;
23099;SDS011;53791;50.696;4.396;2022-09-17T06:03:07;6.80;;;3.67;;
23099;SDS011;53791;50.696;4.396;2022-09-17T06:05:38;2.77;;;2.58;;
23099;SDS011;53791;50.696;4.396;2022-09-17T06:08:07;3.27;;;2.98;;
23099;SDS011;53791;50.696;4.396;2022-09-17T06:10:35;3.30;;;3.00;;
23099;SDS011;53791;50.696;4.396;2022-09-17T06:13:03;6.33;;;3.45;;
23099;SDS011;53791;50.696;4.396;2022-09-17T06:15:31;2.77;;;2.35;;
23099;SDS011;53791;50.696;4.396;2022-09-17T06:17:58;3.35;;;2.35;;
23099;SDS011;53791;50.696;4.396;2022-09-17T06:20:26;4.45;;;2.80;;
23099;SDS011;53791;50.696;4.396;2022-09-17T06:22:56;5.05;;;3.75;;
23099;SDS011;53791;50.696;4.396;2022-09-17T06:25:24;2.47;;;2.27;;
23099;SDS011;53791;50.696;4.396;2022-09-17T06:27:52;16.15;;;2.17;;
23099;SDS011;53791;50.696;4.396;2022-09-17T06:30:19;2.85;;;2.55;;
23099;SDS011;53791;50.696;4.396;2022-09-17T06:32:47;4.15;;;3.10;;
23099;SDS011;53791;50.696;4.396;2022-09-17T06:35:14;4.08;;;3.37;;
23099;SDS011;53791;50.696;4.396;2022-09-17T06:37:44;3.90;;;3.52;;
23099;SDS011;53791;50.696;4.396;2022-09-17T06:40:13;3.98;;;3.58;;
23099;SDS011;53791;50.696;4.396;2022-09-17T06:42:40;3.42;;;3.12;;
23099;SDS011;53791;50.696;4.396;2022-09-17T06:45:09;4.12;;;3.35;;
23099;SDS011;53791;50.696;4.396;2022-09-17T06:47:39;36.17;;;5.62;;
23099;SDS011;53791;50.696;4.396;2022-09-17T06:50:06;3.10;;;2.80;;
23099;SDS011;53791;50.696;4.396;2022-09-17T06:52:34;3.75;;;3.15;;
23099;SDS011;53791;50.696;4.396;2022-09-17T06:55:03;3.10;;;2.85;;
23099;SDS011;53791;50.696;4.396;2022-09-17T06:57:31;5.60;;;3.22;;
23099;SDS011;53791;50.696;4.396;2022-09-17T06:59:58;3.90;;;3.40;;
23099;SDS011;53791;50.696;4.396;2022-09-17T07:02:26;4.17;;;3.85;;
23099;SDS011;53791;50.696;4.396;2022-09-17T07:04:58;3.45;;;3.15;;
23099;SDS011;53791;50.696;4.396;2022-09-17T07:07:27;3.37;;;3.08;;
23099;SDS011;53791;50.696;4.396;2022-09-17T07:09:55;3.10;;;2.80;;
23099;SDS011;53791;50.696;4.396;2022-09-17T07:12:22;6.60;;;5.72;;
23099;SDS011;53791;50.696;4.396;2022-09-17T07:14:52;3.47;;;3.17;;
23099;SDS011;53791;50.696;4.396;2022-09-17T07:17:19;7.85;;;6.20;;
23099;SDS011;53791;50.696;4.396;2022-09-17T07:19:47;2.40;;;2.15;;
23099;SDS011;53791;50.696;4.396;2022-09-17T07:22:17;3.35;;;2.83;;
23099;SDS011;53791;50.696;4.396;2022-09-17T07:24:44;384.32;;;65.28;;
23099;SDS011;53791;50.696;4.396;2022-09-17T07:27:12;52.13;;;20.60;;
23099;SDS011;53791;50.696;4.396;2022-09-17T07:29:49;171.45;;;41.30;;
23099;SDS011;53791;50.696;4.396;2022-09-17T07:32:36;2.87;;;2.58;;
23099;SDS011;53791;50.696;4.396;2022-09-17T07:35:07;2.85;;;2.37;;
23099;SDS011;53791;50.696;4.396;2022-09-17T07:37:33;3.12;;;2.62;;
23099;SDS011;53791;50.696;4.396;2022-09-17T07:40:05;6.75;;;2.27;;
23099;SDS011;53791;50.696;4.396;2022-09-17T07:42:31;3.22;;;2.95;;
23099;SDS011;53791;50.696;4.396;2022-09-17T07:44:59;17.77;;;3.25;;
23099;SDS011;53791;50.696;4.396;2022-09-17T07:47:27;2.12;;;1.92;;
23099;SDS011;53791;50.696;4.396;2022-09-17T07:49:56;41.28;;;37.08;;
23099;SDS011;53791;50.696;4.396;2022-09-17T07:52:25;34.78;;;15.88;;
23099;SDS011;53791;50.696;4.396;2022-09-17T07:54:53;22.15;;;20.60;;
23099;SDS011;53791;50.696;4.396;2022-09-17T07:57:20;21.77;;;20.48;;
23099;SDS011;53791;50.696;4.396;2022-09-17T07:59:48;24.20;;;22.27;;
23099;SDS011;53791;50.696;4.396;2022-09-17T08:02:15;22.40;;;21.00;;
23099;SDS011;53791;50.696;4.396;2022-09-17T08:04:43;17.50;;;16.30;;
23099;SDS011;53791;50.696;4.396;2022-09-17T08:07:11;16.97;;;15.88;;
23099;SDS011;53791;50.696;4.396;2022-09-17T08:09:38;15.35;;;14.35;;
23099;SDS011;53791;50.696;4.396;2022-09-17T08:12:06;65.72;;;59.55;;
23099;SDS011;53791;50.696;4.396;2022-09-17T08:14:34;1999.90;;;999.90;;
23099;SDS011;53791;50.696;4.396;2022-09-17T08:17:01;1999.90;;;999.90;;
23099;SDS011;53791;50.696;4.396;2022-09-17T08:19:32;1999.90;;;999.90;;
23099;SDS011;53791;50.696;4.396;2022-09-17T08:21:59;1999.90;;;999.90;;
23099;SDS011;53791;50.696;4.396;2022-09-17T08:24:28;1999.90;;;999.90;;
23099;SDS011;53791;50.696;4.396;2022-09-17T08:26:55;1999.90;;;999.90;;
23099;SDS011;53791;50.696;4.396;2022-09-17T08:29:23;1999.90;;;999.90;;
23099;SDS011;53791;50.696;4.396;2022-09-17T08:31:50;27.07;;;25.37;;
23099;SDS011;53791;50.696;4.396;2022-09-17T08:34:18;34.90;;;32.08;;
23099;SDS011;53791;50.696;4.396;2022-09-17T08:36:45;27.13;;;25.48;;
23099;SDS011;53791;50.696;4.396;2022-09-17T08:39:14;27.95;;;25.85;;
23099;SDS011;53791;50.696;4.396;2022-09-17T08:41:47;26.73;;;24.20;;
23099;SDS011;53791;50.696;4.396;2022-09-17T08:44:24;28.77;;;26.68;;
23099;SDS011;53791;50.696;4.396;2022-09-17T08:47:16;22.87;;;21.37;;
23099;SDS011;53791;50.696;4.396;2022-09-17T08:49:52;25.55;;;23.98;;
23099;SDS011;53791;50.696;4.396;2022-09-17T08:55:27;30.20;;;28.38;;
23099;SDS011;53791;50.696;4.396;2022-09-17T08:57:56;24.18;;;22.48;;
23099;SDS011;53791;50.696;4.396;2022-09-17T09:00:22;22.67;;;21.27;;
23099;SDS011;53791;50.696;4.396;2022-09-17T09:05:51;17.48;;;16.07;;
23099;SDS011;53791;50.696;4.396;2022-09-17T09:08:25;15.38;;;14.38;;
23099;SDS011;53791;50.696;4.396;2022-09-17T09:10:55;29.15;;;17.42;;
23099;SDS011;53791;50.696;4.396;2022-09-17T09:13:28;19.00;;;17.80;;
23099;SDS011;53791;50.696;4.396;2022-09-17T09:16:06;20.92;;;19.60;;
23099;SDS011;53791;50.696;4.396;2022-09-17T09:18:41;26.05;;;24.45;;
23099;SDS011;53791;50.696;4.396;2022-09-17T09:21:17;29.15;;;27.37;;
23099;SDS011;53791;50.696;4.396;2022-09-17T09:23:49;10.32;;;9.63;;
23099;SDS011;53791;50.696;4.396;2022-09-17T09:26:16;15.08;;;14.18;;
23099;SDS011;53791;50.696;4.396;2022-09-17T09:29:08;7.75;;;7.15;;
23099;SDS011;53791;50.696;4.396;2022-09-17T09:31:55;7.30;;;6.80;;
23099;SDS011;53791;50.696;4.396;2022-09-17T09:34:20;7.65;;;7.15;;
23099;SDS011;53791;50.696;4.396;2022-09-17T09:36:48;11.18;;;6.67;;
23099;SDS011;53791;50.696;4.396;2022-09-17T09:39:19;8.00;;;7.40;;
23099;SDS011;53791;50.696;4.396;2022-09-17T09:41:59;7.05;;;6.55;;
23099;SDS011;53791;50.696;4.396;2022-09-17T09:44:28;2.70;;;2.50;;
23099;SDS011;53791;50.696;4.396;2022-09-17T09:49:39;5.70;;;5.20;;
23099;SDS011;53791;50.696;4.396;2022-09-17T09:58:03;69.72;;;33.30;;
23099;SDS011;53791;50.696;4.396;2022-09-17T10:00:37;1.70;;;1.30;;
23099;SDS011;53791;50.696;4.396;2022-09-17T10:03:16;2.30;;;1.45;;
23099;SDS011;53791;50.696;4.396;2022-09-17T10:05:51;1.90;;;1.32;;
23099;SDS011;53791;50.696;4.396;2022-09-17T10:08:16;1.70;;;1.10;;
23099;SDS011;53791;50.696;4.396;2022-09-17T10:13:32;1.70;;;1.20;;
23099;SDS011;53791;50.696;4.396;2022-09-17T10:16:16;1.90;;;1.40;;
23099;SDS011;53791;50.696;4.396;2022-09-17T10:18:47;1.60;;;1.10;;
23099;SDS011;53791;50.696;4.396;2022-09-17T10:21:21;1.80;;;1.30;;
23099;SDS011;53791;50.696;4.396;2022-09-17T10:23:53;2.52;;;1.57;;
23099;SDS011;53791;50.696;4.396;2022-09-17T10:26:28;1.70;;;1.27;;
23099;SDS011;53791;50.696;4.396;2022-09-17T10:28:49;2.00;;;1.50;;
23099;SDS011;53791;50.696;4.396;2022-09-17T10:31:19;2.33;;;1.50;;
23099;SDS011;53791;50.696;4.396;2022-09-17T10:33:51;2.77;;;1.50;;
23099;SDS011;53791;50.696;4.396;2022-09-17T10:36:36;1.80;;;1.40;;
23099;SDS011;53791;50.696;4.396;2022-09-17T10:39:30;2.15;;;1.55;;
23099;SDS011;53791;50.696;4.396;2022-09-17T10:41:57;1.77;;;1.22;;
23099;SDS011;53791;50.696;4.396;2022-09-17T10:44:30;4.50;;;1.70;;
23099;SDS011;53791;50.696;4.396;2022-09-17T10:47:09;1.90;;;1.30;;
23099;SDS011;53791;50.696;4.396;2022-09-17T10:49:40;162.12;;;39.65;;
23099;SDS011;53791;50.696;4.396;2022-09-17T10:52:18;1999.90;;;999.90;;
23099;SDS011;53791;50.696;4.396;2022-09-17T10:54:58;1999.90;;;999.90;;
23099;SDS011;53791;50.696;4.396;2022-09-17T11:00:22;1999.90;;;999.90;;
23099;SDS011;53791;50.696;4.396;2022-09-17T11:08:33;1999.90;;;999.90;;
23099;SDS011;53791;50.696;4.396;2022-09-17T11:11:08;1999.90;;;999.90;;
23099;SDS011;53791;50.696;4.396;2022-09-17T11:16:39;1999.90;;;999.90;;
23099;SDS011;53791;50.696;4.396;2022-09-17T11:32:37;1.50;;;1.00;;
23099;SDS011;53791;50.696;4.396;2022-09-17T11:35:25;1.90;;;1.60;;
23099;SDS011;53791;50.696;4.396;2022-09-17T11:38:07;16.00;;;2.20;;
23099;SDS011;53791;50.696;4.396;2022-09-17T11:40:39;2.05;;;1.60;;
23099;SDS011;53791;50.696;4.396;2022-09-17T11:46:07;181.20;;;18.73;;
23099;SDS011;53791;50.696;4.396;2022-09-17T11:48:59;1.87;;;1.32;;
23099;SDS011;53791;50.696;4.396;2022-09-17T11:51:13;1.60;;;1.10;;
23099;SDS011;53791;50.696;4.396;2022-09-17T11:53:49;1.70;;;1.15;;
23099;SDS011;53791;50.696;4.396;2022-09-17T11:56:23;1.80;;;1.10;;
23099;SDS011;53791;50.696;4.396;2022-09-17T11:59:07;1.70;;;1.00;;
23099;SDS011;53791;50.696;4.396;2022-09-17T12:01:57;4.33;;;3.05;;
23099;SDS011;53791;50.696;4.396;2022-09-17T12:10:28;1999.90;;;999.90;;
23099;SDS011;53791;50.696;4.396;2022-09-17T12:13:01;333.07;;;19.48;;
23099;SDS011;53791;50.696;4.396;2022-09-17T12:15:38;5.70;;;5.28;;
23099;SDS011;53791;50.696;4.396;2022-09-17T12:20:48;73.20;;;67.85;;
23099;SDS011;53791;50.696;4.396;2022-09-17T12:23:21;11.40;;;10.40;;
23099;SDS011;53791;50.696;4.396;2022-09-17T12:25:57;5.22;;;4.72;;
23099;SDS011;53791;50.696;4.396;2022-09-17T12:29:02;1999.90;;;999.90;;
23099;SDS011;53791;50.696;4.396;2022-09-17T12:31:32;1999.90;;;999.90;;
23099;SDS011;53791;50.696;4.396;2022-09-17T12:34:10;1999.90;;;999.90;;
23099;SDS011;53791;50.696;4.396;2022-09-17T12:37:00;1999.90;;;999.90;;
23099;SDS011;53791;50.696;4.396;2022-09-17T12:39:43;1999.90;;;999.90;;
23099;SDS011;53791;50.696;4.396;2022-09-17T12:42:21;1999.90;;;999.90;;
23099;SDS011;53791;50.696;4.396;2022-09-17T12:50:29;1999.90;;;999.90;;
23099;SDS011;53791;50.696;4.396;2022-09-17T12:55:56;1.70;;;1.27;;
23099;SDS011;53791;50.696;4.396;2022-09-17T12:58:33;1.70;;;1.22;;
23099;SDS011;53791;50.696;4.396;2022-09-17T13:01:09;1.70;;;1.20;;
23099;SDS011;53791;50.696;4.396;2022-09-17T13:09:00;1.70;;;1.30;;
23099;SDS011;53791;50.696;4.396;2022-09-17T13:14:32;47.98;;;44.85;;
23099;SDS011;53791;50.696;4.396;2022-09-17T13:19:39;3.80;;;3.50;;
23099;SDS011;53791;50.696;4.396;2022-09-17T13:22:18;4.55;;;4.17;;
23099;SDS011;53791;50.696;4.396;2022-09-17T13:25:00;2.70;;;2.50;;
23099;SDS011;53791;50.696;4.396;2022-09-17T13:27:30;2.47;;;2.27;;
23099;SDS011;53791;50.696;4.396;2022-09-17T13:29:59;98.82;;;76.65;;
23099;SDS011;53791;50.696;4.396;2022-09-17T13:40:21;22.20;;;20.88;;
23099;SDS011;53791;50.696;4.396;2022-09-17T13:42:55;12.80;;;12.00;;
23099;SDS011;53791;50.696;4.396;2022-09-17T13:45:24;8.18;;;7.67;;
23099;SDS011;53791;50.696;4.396;2022-09-17T13:47:59;7.20;;;6.70;;
23099;SDS011;53791;50.696;4.396;2022-09-17T13:50:26;4.85;;;4.55;;
23099;SDS011;53791;50.696;4.396;2022-09-17T13:52:57;4.92;;;4.62;;
23099;SDS011;53791;50.696;4.396;2022-09-17T13:58:23;3.98;;;3.67;;
23099;SDS011;53791;50.696;4.396;2022-09-17T14:19:30;1521.30;;;760.48;;
23099;SDS011;53791;50.696;4.396;2022-09-17T14:24:52;9.30;;;8.70;;
23099;SDS011;53791;50.696;4.396;2022-09-17T14:35:37;1999.90;;;999.90;;
23099;SDS011;53791;50.696;4.396;2022-09-17T14:38:32;1999.90;;;999.90;;
23099;SDS011;53791;50.696;4.396;2022-09-17T14:41:06;1999.90;;;999.90;;
23099;SDS011;53791;50.696;4.396;2022-09-17T14:43:40;1999.90;;;999.90;;
23099;SDS011;53791;50.696;4.396;2022-09-17T14:46:16;1999.90;;;999.90;;
23099;SDS011;53791;50.696;4.396;2022-09-17T14:48:46;1999.90;;;999.90;;
23099;SDS011;53791;50.696;4.396;2022-09-17T14:53:48;1999.90;;;999.90;;
23099;SDS011;53791;50.696;4.396;2022-09-17T14:56:33;1999.90;;;999.90;;
23099;SDS011;53791;50.696;4.396;2022-09-17T14:59:04;1999.90;;;999.90;;
23099;SDS011;53791;50.696;4.396;2022-09-17T15:01:33;1999.90;;;999.90;;
23099;SDS011;53791;50.696;4.396;2022-09-17T15:06:43;1999.90;;;999.90;;
23099;SDS011;53791;50.696;4.396;2022-09-17T15:11:53;1999.90;;;999.90;;
23099;SDS011;53791;50.696;4.396;2022-09-17T15:14:30;1999.90;;;999.90;;
23099;SDS011;53791;50.696;4.396;2022-09-17T15:17:00;1999.90;;;999.90;;
23099;SDS011;53791;50.696;4.396;2022-09-17T15:19:38;1999.90;;;999.90;;
23099;SDS011;53791;50.696;4.396;2022-09-17T15:22:12;1999.90;;;999.90;;
23099;SDS011;53791;50.696;4.396;2022-09-17T15:24:50;1999.90;;;999.90;;
23099;SDS011;53791;50.696;4.396;2022-09-17T15:30:05;1999.90;;;999.90;;
23099;SDS011;53791;50.696;4.396;2022-09-17T15:32:25;1999.90;;;999.90;;
23099;SDS011;53791;50.696;4.396;2022-09-17T15:37:49;1999.90;;;999.90;;
23099;SDS011;53791;50.696;4.396;2022-09-17T15:43:13;1999.90;;;999.90;;
23099;SDS011;53791;50.696;4.396;2022-09-17T15:45:54;1999.90;;;999.90;;
23099;SDS011;53791;50.696;4.396;2022-09-17T15:51:03;1999.90;;;999.90;;
23099;SDS011;53791;50.696;4.396;2022-09-17T15:53:33;1999.90;;;999.90;;
23099;SDS011;53791;50.696;4.396;2022-09-17T15:56:06;1999.90;;;999.90;;
23099;SDS011;53791;50.696;4.396;2022-09-17T16:06:33;1999.90;;;999.90;;
23099;SDS011;53791;50.696;4.396;2022-09-17T16:09:03;1999.90;;;999.90;;
23099;SDS011;53791;50.696;4.396;2022-09-17T16:11:33;1999.90;;;999.90;;
23099;SDS011;53791;50.696;4.396;2022-09-17T16:14:01;1999.90;;;999.90;;
23099;SDS011;53791;50.696;4.396;2022-09-17T16:16:31;1999.90;;;999.90;;
23099;SDS011;53791;50.696;4.396;2022-09-17T16:19:02;1999.90;;;999.90;;
23099;SDS011;53791;50.696;4.396;2022-09-17T16:21:31;1999.90;;;999.90;;
23099;SDS011;53791;50.696;4.396;2022-09-17T16:23:58;1999.90;;;999.90;;
23099;SDS011;53791;50.696;4.396;2022-09-17T16:26:32;1999.90;;;999.90;;
23099;SDS011;53791;50.696;4.396;2022-09-17T16:29:02;1999.90;;;999.90;;
23099;SDS011;53791;50.696;4.396;2022-09-17T16:31:32;1999.90;;;999.90;;
23099;SDS011;53791;50.696;4.396;2022-09-17T16:33:59;1999.90;;;999.90;;
23099;SDS011;53791;50.696;4.396;2022-09-17T16:36:27;1999.90;;;999.90;;
23099;SDS011;53791;50.696;4.396;2022-09-17T16:38:57;1999.90;;;999.90;;
23099;SDS011;53791;50.696;4.396;2022-09-17T16:41:25;1999.90;;;999.90;;
23099;SDS011;53791;50.696;4.396;2022-09-17T16:43:53;1999.90;;;999.90;;
23099;SDS011;53791;50.696;4.396;2022-09-17T16:46:22;1999.90;;;999.90;;
23099;SDS011;53791;50.696;4.396;2022-09-17T16:48:49;1999.90;;;999.90;;
23099;SDS011;53791;50.696;4.396;2022-09-17T16:51:17;1999.90;;;999.90;;
23099;SDS011;53791;50.696;4.396;2022-09-17T16:53:44;1999.90;;;999.90;;
23099;SDS011;53791;50.696;4.396;2022-09-17T16:56:13;1999.90;;;999.90;;
23099;SDS011;53791;50.696;4.396;2022-09-17T16:58:41;1999.90;;;999.90;;
23099;SDS011;53791;50.696;4.396;2022-09-17T17:01:14;1999.90;;;999.90;;
23099;SDS011;53791;50.696;4.396;2022-09-17T17:03:38;1999.90;;;999.90;;
23099;SDS011;53791;50.696;4.396;2022-09-17T17:06:06;1999.90;;;999.90;;
23099;SDS011;53791;50.696;4.396;2022-09-17T17:08:46;1999.90;;;999.90;;
23099;SDS011;53791;50.696;4.396;2022-09-17T17:11:17;1999.90;;;999.90;;
23099;SDS011;53791;50.696;4.396;2022-09-17T17:13:45;1999.90;;;999.90;;
23099;SDS011;53791;50.696;4.396;2022-09-17T17:16:13;1999.90;;;999.90;;
23099;SDS011;53791;50.696;4.396;2022-09-17T17:18:42;1999.90;;;999.90;;
23099;SDS011;53791;50.696;4.396;2022-09-17T17:21:25;1999.90;;;999.90;;
23099;SDS011;53791;50.696;4.396;2022-09-17T17:23:54;1999.90;;;999.90;;
23099;SDS011;53791;50.696;4.396;2022-09-17T17:26:29;1999.90;;;999.90;;
23099;SDS011;53791;50.696;4.396;2022-09-17T17:28:56;1999.90;;;999.90;;
23099;SDS011;53791;50.696;4.396;2022-09-17T17:31:24;1999.90;;;999.90;;
23099;SDS011;53791;50.696;4.396;2022-09-17T17:33:52;1999.90;;;999.90;;
23099;SDS011;53791;50.696;4.396;2022-09-17T17:36:19;1999.90;;;999.90;;